Time;durP1;ratioP1;P1;durP2;ratioP2;P2;SDS_P1;SDS_P2;PMS_P1;PMS_P2;Temp;Humidity;BMP_temperature;BMP_pressure;BME280_temperature;BME280_humidity;BME280_pressure;Samples;Min_cycle;Max_cycle;Signal;HPM_P1;HPM_P2
2022/01/17 00:01:42;;;;;;;18.17;14.95;;;;;;;;;;5050911;28;20532;-56
2022/01/17 00:04:10;;;;;;;22.73;13.20;;;;;;;;;;5047572;28;20355;-56
2022/01/17 00:06:36;;;;;;;16.55;12.00;;;;;;;;;;5050294;28;20035;-56
2022/01/17 00:09:01;;;;;;;17.35;10.00;;;;;;;;;;5051582;28;20764;-56
2022/01/17 00:11:26;;;;;;;10.45;7.32;;;;;;;;;;5055582;28;20052;-54
2022/01/17 00:13:52;;;;;;;9.13;7.53;;;;;;;;;;5054254;28;20094;-54
2022/01/17 00:16:25;;;;;;;13.60;8.98;;;;;;;;;;5049790;28;20028;-55
2022/01/17 00:21:16;;;;;;;9.00;8.15;;;;;;;;;;5052410;28;20029;-55
2022/01/17 00:23:42;;;;;;;23.80;11.13;;;;;;;;;;5054481;28;20073;-56
2022/01/17 00:26:07;;;;;;;19.27;11.30;;;;;;;;;;5058347;28;20166;-55
2022/01/17 00:28:33;;;;;;;39.42;11.73;;;;;;;;;;5053684;28;20072;-56
2022/01/17 00:31:01;;;;;;;19.38;12.25;;;;;;;;;;5053267;28;20020;-55
2022/01/17 00:33:26;;;;;;;18.48;14.27;;;;;;;;;;5054061;28;20051;-56
2022/01/17 00:35:51;;;;;;;21.13;12.95;;;;;;;;;;5053509;28;20540;-55
2022/01/17 00:38:17;;;;;;;15.95;10.80;;;;;;;;;;5054309;28;20081;-56
2022/01/17 00:40:42;;;;;;;21.95;12.27;;;;;;;;;;5056137;28;20482;-55
2022/01/17 00:43:08;;;;;;;18.70;12.00;;;;;;;;;;5055223;28;20044;-56
2022/01/17 00:45:37;;;;;;;19.58;13.45;;;;;;;;;;5053697;28;20488;-55
2022/01/17 00:48:02;;;;;;;32.30;16.45;;;;;;;;;;5051263;28;20021;-54
2022/01/17 00:50:28;;;;;;;20.70;15.02;;;;;;;;;;5050786;28;20030;-55
2022/01/17 00:52:54;;;;;;;21.83;13.30;;;;;;;;;;5049686;28;20452;-54
2022/01/17 00:55:19;;;;;;;21.15;15.93;;;;;;;;;;5054994;28;20049;-54
2022/01/17 00:57:45;;;;;;;34.30;22.67;;;;;;;;;;5057497;28;20021;-54
2022/01/17 01:00:11;;;;;;;36.53;20.67;;;;;;;;;;5053738;28;20033;-54
2022/01/17 01:02:38;;;;;;;29.58;18.63;;;;;;;;;;5050517;28;20075;-53
2022/01/17 01:05:04;;;;;;;20.63;15.68;;;;;;;;;;5051025;28;20111;-55
2022/01/17 01:07:29;;;;;;;22.23;17.20;;;;;;;;;;5051925;28;20028;-56
2022/01/17 01:12:26;;;;;;;58.55;24.85;;;;;;;;;;5051604;28;20036;-56
2022/01/17 01:14:51;;;;;;;58.65;32.85;;;;;;;;;;5050007;28;20020;-56
2022/01/17 01:17:32;;;;;;;70.72;39.00;;;;;;;;;;5054981;28;20588;-54
2022/01/17 01:20:09;;;;;;;75.80;36.50;;;;;;;;;;5051712;28;20036;-55
2022/01/17 01:28:05;;;;;;;41.33;21.88;;;;;;;;;;5054773;28;20396;-54
2022/01/17 01:30:32;;;;;;;35.78;20.40;;;;;;;;;;5059257;28;20020;-54
2022/01/17 01:32:59;;;;;;;33.95;20.75;;;;;;;;;;5056922;28;20032;-55
2022/01/17 01:35:27;;;;;;;36.33;24.30;;;;;;;;;;5055814;28;20049;-56
2022/01/17 01:37:52;;;;;;;77.68;32.08;;;;;;;;;;5056733;28;20060;-54
2022/01/17 01:40:18;;;;;;;41.10;22.25;;;;;;;;;;5056930;28;20506;-56
2022/01/17 01:42:44;;;;;;;29.90;16.73;;;;;;;;;;5054016;28;20091;-55
2022/01/17 01:45:12;;;;;;;50.75;24.27;;;;;;;;;;5055928;28;20505;-56
2022/01/17 01:47:38;;;;;;;48.10;24.20;;;;;;;;;;5060757;28;20051;-55
2022/01/17 01:50:04;;;;;;;48.92;24.52;;;;;;;;;;5056574;28;20419;-56
2022/01/17 01:52:29;;;;;;;26.70;12.90;;;;;;;;;;5057521;28;20584;-56
2022/01/17 01:54:54;;;;;;;35.30;17.95;;;;;;;;;;5055898;28;20306;-54
2022/01/17 01:57:19;;;;;;;30.33;15.63;;;;;;;;;;5057526;28;20025;-56
2022/01/17 01:59:45;;;;;;;24.70;16.83;;;;;;;;;;5055705;28;20544;-55
2022/01/17 02:02:10;;;;;;;44.58;24.40;;;;;;;;;;5053685;28;20158;-56
2022/01/17 02:04:36;;;;;;;38.30;19.73;;;;;;;;;;5050875;28;20592;-55
2022/01/17 02:07:01;;;;;;;35.25;16.60;;;;;;;;;;5055377;28;20035;-56
2022/01/17 02:09:26;;;;;;;22.88;14.10;;;;;;;;;;5058406;28;20052;-54
2022/01/17 02:11:52;;;;;;;20.65;13.38;;;;;;;;;;5050520;28;20444;-54
2022/01/17 02:14:17;;;;;;;15.30;12.50;;;;;;;;;;5051984;28;20025;-57
2022/01/17 02:16:44;;;;;;;37.45;17.90;;;;;;;;;;5057338;28;20082;-56
2022/01/17 02:19:10;;;;;;;36.33;18.10;;;;;;;;;;5050498;28;20021;-55
2022/01/17 02:21:47;;;;;;;32.35;17.20;;;;;;;;;;5056199;28;20024;-52
2022/01/17 02:24:18;;;;;;;44.20;17.60;;;;;;;;;;5054682;28;20602;-56
2022/01/17 02:26:44;;;;;;;30.65;13.57;;;;;;;;;;5053804;28;20123;-55
2022/01/17 02:29:09;;;;;;;19.67;13.20;;;;;;;;;;5053980;28;20104;-54
2022/01/17 02:31:35;;;;;;;29.77;14.55;;;;;;;;;;5055274;28;20021;-54
2022/01/17 02:34:01;;;;;;;28.67;14.05;;;;;;;;;;5054153;28;20789;-56
2022/01/17 02:36:27;;;;;;;19.58;10.95;;;;;;;;;;5052362;28;20035;-56
2022/01/17 02:38:52;;;;;;;17.33;9.70;;;;;;;;;;5055394;28;20024;-54
2022/01/17 02:41:18;;;;;;;26.13;12.98;;;;;;;;;;5054789;28;20093;-54
2022/01/17 02:43:46;;;;;;;15.90;11.02;;;;;;;;;;5060855;28;20036;-55
2022/01/17 02:48:39;;;;;;;22.70;13.68;;;;;;;;;;5056265;28;20140;-55
2022/01/17 02:51:05;;;;;;;18.15;12.10;;;;;;;;;;5056993;28;20021;-54
2022/01/17 02:53:31;;;;;;;19.20;8.10;;;;;;;;;;5052881;28;20028;-54
2022/01/17 02:55:58;;;;;;;14.15;7.90;;;;;;;;;;5051191;28;20151;-55
2022/01/17 02:58:27;;;;;;;13.68;6.75;;;;;;;;;;5056510;28;20878;-54
2022/01/17 03:00:54;;;;;;;7.00;6.00;;;;;;;;;;5057123;28;20029;-54
2022/01/17 03:03:24;;;;;;;18.30;9.30;;;;;;;;;;5055206;28;20024;-56
2022/01/17 03:05:49;;;;;;;9.77;6.30;;;;;;;;;;5056696;28;20017;-55
2022/01/17 03:08:16;;;;;;;15.35;6.68;;;;;;;;;;5057988;28;20039;-52
2022/01/17 03:10:43;;;;;;;10.43;7.22;;;;;;;;;;5055799;28;20081;-55
2022/01/17 03:13:09;;;;;;;16.95;9.55;;;;;;;;;;5056169;28;20036;-55
2022/01/17 03:15:35;;;;;;;13.60;9.20;;;;;;;;;;5053952;28;20044;-53
2022/01/17 03:18:01;;;;;;;15.20;8.75;;;;;;;;;;5053945;28;20063;-55
2022/01/17 03:20:26;;;;;;;12.00;8.98;;;;;;;;;;5052590;28;20810;-53
2022/01/17 03:22:51;;;;;;;13.20;9.70;;;;;;;;;;5054108;28;20036;-55
2022/01/17 03:25:17;;;;;;;16.80;8.20;;;;;;;;;;5053278;28;20028;-54
2022/01/17 03:27:42;;;;;;;13.52;7.57;;;;;;;;;;5056739;28;20017;-54
2022/01/17 03:30:08;;;;;;;9.82;8.82;;;;;;;;;;5053605;28;20013;-56
2022/01/17 03:32:33;;;;;;;13.98;9.32;;;;;;;;;;5052311;28;20100;-55
2022/01/17 03:34:58;;;;;;;11.07;9.88;;;;;;;;;;5053274;28;20170;-56
2022/01/17 03:37:24;;;;;;;14.40;8.38;;;;;;;;;;5055029;28;20126;-55
2022/01/17 03:39:49;;;;;;;12.07;8.10;;;;;;;;;;5051262;28;20021;-53
2022/01/17 03:42:15;;;;;;;11.25;6.78;;;;;;;;;;5055502;28;20028;-56
2022/01/17 03:44:40;;;;;;;9.88;7.85;;;;;;;;;;5052542;28;20028;-53
2022/01/17 03:47:05;;;;;;;8.43;6.18;;;;;;;;;;5053117;28;20027;-54
2022/01/17 03:49:31;;;;;;;7.88;5.32;;;;;;;;;;5054253;28;20049;-52
2022/01/17 03:51:56;;;;;;;10.05;7.43;;;;;;;;;;5049150;28;20156;-54
2022/01/17 03:54:22;;;;;;;4.55;3.42;;;;;;;;;;5052421;28;20498;-55
2022/01/17 03:56:47;;;;;;;6.30;4.78;;;;;;;;;;5055397;28;20715;-54
2022/01/17 03:59:12;;;;;;;9.20;4.40;;;;;;;;;;5057652;28;20043;-54
2022/01/17 04:01:38;;;;;;;5.07;3.50;;;;;;;;;;5050865;28;20124;-54
2022/01/17 04:04:03;;;;;;;4.68;3.28;;;;;;;;;;5054937;28;20405;-51
2022/01/17 04:06:29;;;;;;;7.15;2.72;;;;;;;;;;5053938;28;20032;-54
2022/01/17 04:08:54;;;;;;;7.60;3.85;;;;;;;;;;5050958;28;20367;-55
2022/01/17 04:11:19;;;;;;;6.15;3.53;;;;;;;;;;5054533;28;20401;-51
2022/01/17 04:13:45;;;;;;;7.88;5.53;;;;;;;;;;5052147;28;20029;-54
2022/01/17 04:16:12;;;;;;;10.57;5.63;;;;;;;;;;5055113;28;20482;-54
2022/01/17 04:18:37;;;;;;;9.00;7.40;;;;;;;;;;5056749;28;20020;-52
2022/01/17 04:21:03;;;;;;;4.65;3.45;;;;;;;;;;5055179;28;20043;-56
2022/01/17 04:23:29;;;;;;;18.80;5.03;;;;;;;;;;5050667;28;20410;-56
2022/01/17 04:25:54;;;;;;;7.20;3.00;;;;;;;;;;5057542;28;20049;-55
2022/01/17 04:28:19;;;;;;;7.07;3.80;;;;;;;;;;5053594;28;20012;-55
2022/01/17 04:30:45;;;;;;;5.75;3.80;;;;;;;;;;5055980;28;20021;-55
2022/01/17 04:33:10;;;;;;;5.65;3.63;;;;;;;;;;5055197;28;20028;-55
2022/01/17 04:35:36;;;;;;;6.18;4.15;;;;;;;;;;5060708;28;20024;-55
2022/01/17 04:38:06;;;;;;;5.20;3.60;;;;;;;;;;5057106;28;20028;-54
2022/01/17 04:40:37;;;;;;;7.35;4.88;;;;;;;;;;5055646;28;20082;-52
2022/01/17 04:43:04;;;;;;;9.70;5.68;;;;;;;;;;5053319;28;20025;-52
2022/01/17 04:45:30;;;;;;;5.32;3.30;;;;;;;;;;5057795;28;20481;-55
2022/01/17 04:47:55;;;;;;;7.10;4.85;;;;;;;;;;5054957;28;20021;-55
2022/01/17 04:50:23;;;;;;;14.88;5.05;;;;;;;;;;5050855;28;20048;-55
2022/01/17 04:52:48;;;;;;;3.67;3.08;;;;;;;;;;5057451;28;20015;-54
2022/01/17 04:55:15;;;;;;;8.48;3.33;;;;;;;;;;5057724;28;20053;-54
2022/01/17 04:57:40;;;;;;;3.80;2.78;;;;;;;;;;5057321;28;20031;-51
2022/01/17 05:00:07;;;;;;;7.95;2.53;;;;;;;;;;5053311;28;20380;-55
2022/01/17 05:02:33;;;;;;;5.95;3.72;;;;;;;;;;5057105;28;20028;-55
2022/01/17 05:04:58;;;;;;;5.18;4.05;;;;;;;;;;5055907;28;20055;-56
2022/01/17 05:07:24;;;;;;;10.27;5.28;;;;;;;;;;5059961;28;20088;-54
2022/01/17 05:09:49;;;;;;;22.73;10.45;;;;;;;;;;5056541;28;20116;-56
2022/01/17 05:12:15;;;;;;;18.77;16.83;;;;;;;;;;5053570;28;20035;-54
2022/01/17 05:14:43;;;;;;;23.38;20.73;;;;;;;;;;5050989;28;20051;-54
2022/01/17 05:20:07;;;;;;;6.40;4.78;;;;;;;;;;5045421;28;20029;-54
2022/01/17 05:22:33;;;;;;;5.28;3.85;;;;;;;;;;5053176;28;20021;-53
2022/01/17 05:24:59;;;;;;;5.45;3.38;;;;;;;;;;5055897;28;20033;-54
2022/01/17 05:27:25;;;;;;;5.55;3.47;;;;;;;;;;5053921;28;20025;-54
2022/01/17 05:29:50;;;;;;;8.70;4.90;;;;;;;;;;5053451;28;20070;-55
2022/01/17 05:32:15;;;;;;;9.63;6.43;;;;;;;;;;5053716;28;20040;-56
2022/01/17 05:34:41;;;;;;;15.93;11.95;;;;;;;;;;5049573;28;20363;-53
2022/01/17 05:37:07;;;;;;;9.95;8.38;;;;;;;;;;5050342;28;20381;-54
2022/01/17 05:39:33;;;;;;;6.32;4.22;;;;;;;;;;5055450;28;20425;-54
2022/01/17 05:41:58;;;;;;;6.70;4.95;;;;;;;;;;5055174;28;20050;-54
2022/01/17 05:44:23;;;;;;;3.50;2.85;;;;;;;;;;5055626;28;20547;-54
2022/01/17 05:46:49;;;;;;;6.60;4.00;;;;;;;;;;5057823;28;20021;-54
2022/01/17 05:49:14;;;;;;;7.75;6.57;;;;;;;;;;5051679;28;20050;-52
2022/01/17 05:51:39;;;;;;;8.98;6.18;;;;;;;;;;5055735;28;20036;-50
2022/01/17 05:54:05;;;;;;;6.97;4.95;;;;;;;;;;5055322;28;20123;-55
2022/01/17 05:56:30;;;;;;;8.10;4.72;;;;;;;;;;5054923;28;20074;-53
2022/01/17 05:58:55;;;;;;;5.85;4.30;;;;;;;;;;5058605;28;20029;-54
2022/01/17 06:01:21;;;;;;;4.82;4.03;;;;;;;;;;5054813;28;20013;-52
2022/01/17 06:03:46;;;;;;;3.75;3.20;;;;;;;;;;5055549;28;20096;-54
2022/01/17 06:06:12;;;;;;;7.60;3.25;;;;;;;;;;5054689;28;20529;-54
2022/01/17 06:08:38;;;;;;;9.38;5.30;;;;;;;;;;5050875;28;20017;-55
2022/01/17 06:11:03;;;;;;;20.45;6.35;;;;;;;;;;5053346;28;20672;-54
2022/01/17 06:13:29;;;;;;;12.45;5.93;;;;;;;;;;5059718;28;20490;-53
2022/01/17 06:15:54;;;;;;;12.52;6.95;;;;;;;;;;5055193;28;20027;-50
2022/01/17 06:18:19;;;;;;;11.82;7.53;;;;;;;;;;5058403;28;20072;-51
2022/01/17 06:20:44;;;;;;;7.47;6.75;;;;;;;;;;5052961;28;20021;-59
2022/01/17 06:23:10;;;;;;;8.43;6.15;;;;;;;;;;5053829;28;20378;-51
2022/01/17 06:25:35;;;;;;;11.13;8.15;;;;;;;;;;5056453;28;20047;-53
2022/01/17 06:28:00;;;;;;;17.98;12.35;;;;;;;;;;5055928;28;20029;-54
2022/01/17 06:30:26;;;;;;;10.20;9.05;;;;;;;;;;5051098;28;20110;-49
2022/01/17 06:32:51;;;;;;;13.02;8.85;;;;;;;;;;5057547;28;20020;-55
2022/01/17 06:35:17;;;;;;;27.80;14.77;;;;;;;;;;5057507;28;20035;-56
2022/01/17 06:37:44;;;;;;;27.35;15.43;;;;;;;;;;5059531;28;20086;-52
2022/01/17 06:40:10;;;;;;;23.48;16.05;;;;;;;;;;5056582;28;20024;-52
2022/01/17 06:42:35;;;;;;;21.85;13.52;;;;;;;;;;5058726;28;20567;-54
2022/01/17 06:45:04;;;;;;;13.90;12.15;;;;;;;;;;5057658;28;20079;-55
2022/01/17 06:47:32;;;;;;;13.02;9.00;;;;;;;;;;5057942;28;20050;-55
2022/01/17 06:49:58;;;;;;;18.63;8.50;;;;;;;;;;5062718;28;20029;-55
2022/01/17 06:52:23;;;;;;;29.10;18.58;;;;;;;;;;5056831;28;20020;-55
2022/01/17 06:54:50;;;;;;;13.20;10.27;;;;;;;;;;5057804;28;20051;-55
2022/01/17 06:57:15;;;;;;;13.98;10.45;;;;;;;;;;5055426;28;20020;-55
2022/01/17 06:59:40;;;;;;;25.50;22.83;;;;;;;;;;5058115;28;20385;-55
2022/01/17 07:02:08;;;;;;;81.85;51.05;;;;;;;;;;5054138;28;20432;-55
2022/01/17 07:04:33;;;;;;;34.80;24.23;;;;;;;;;;5059656;28;20103;-54
2022/01/17 07:06:58;;;;;;;16.58;13.13;;;;;;;;;;5057789;28;20670;-53
2022/01/17 07:09:24;;;;;;;12.90;10.38;;;;;;;;;;5058293;28;20084;-55
2022/01/17 07:11:49;;;;;;;15.98;11.38;;;;;;;;;;5058395;28;20537;-53
2022/01/17 07:14:14;;;;;;;20.42;12.95;;;;;;;;;;5057829;28;20040;-58
2022/01/17 07:16:40;;;;;;;44.28;26.80;;;;;;;;;;5055887;28;20091;-57
2022/01/17 07:19:06;;;;;;;35.05;27.73;;;;;;;;;;5053488;28;20029;-58
2022/01/17 07:21:32;;;;;;;39.65;26.75;;;;;;;;;;5055085;28;20078;-58
2022/01/17 07:23:58;;;;;;;27.88;25.00;;;;;;;;;;5054639;28;20602;-58
2022/01/17 07:26:23;;;;;;;28.02;23.20;;;;;;;;;;5055211;28;20037;-58
2022/01/17 07:28:49;;;;;;;23.92;20.38;;;;;;;;;;5051715;28;20459;-58
2022/01/17 07:31:15;;;;;;;23.42;21.02;;;;;;;;;;5057384;28;20017;-59
2022/01/17 07:33:41;;;;;;;28.20;21.38;;;;;;;;;;5057572;28;20102;-58
2022/01/17 07:36:06;;;;;;;40.67;23.52;;;;;;;;;;5052518;28;20025;-58
2022/01/17 07:38:32;;;;;;;22.75;19.52;;;;;;;;;;5054083;28;20021;-57
2022/01/17 07:40:57;;;;;;;24.65;22.17;;;;;;;;;;5053537;28;20033;-58
2022/01/17 07:43:23;;;;;;;28.45;20.58;;;;;;;;;;5053406;28;20029;-58
2022/01/17 07:46:06;;;;;;;51.42;24.98;;;;;;;;;;5053789;28;20028;-58
2022/01/17 07:51:16;;;;;;;63.42;27.35;;;;;;;;;;5054726;28;20082;-58
2022/01/17 07:53:42;;;;;;;87.30;25.95;;;;;;;;;;5055612;28;20521;-57
2022/01/17 07:56:07;;;;;;;30.17;21.45;;;;;;;;;;5056528;28;20662;-58
2022/01/17 07:58:32;;;;;;;34.97;18.58;;;;;;;;;;5056264;28;20419;-58
2022/01/17 08:00:58;;;;;;;63.78;23.52;;;;;;;;;;5053492;28;20037;-58
2022/01/17 08:03:23;;;;;;;53.78;22.63;;;;;;;;;;5053226;28;20037;-58
2022/01/17 08:05:48;;;;;;;54.50;26.80;;;;;;;;;;5061895;28;20392;-58
2022/01/17 08:08:13;;;;;;;49.35;34.47;;;;;;;;;;5054268;28;20033;-58
2022/01/17 08:10:39;;;;;;;37.53;33.58;;;;;;;;;;5056075;28;20021;-58
2022/01/17 08:13:04;;;;;;;47.25;29.02;;;;;;;;;;5052679;28;20013;-58
2022/01/17 08:15:31;;;;;;;48.63;29.55;;;;;;;;;;5056333;28;20481;-58
2022/01/17 08:17:56;;;;;;;42.78;27.13;;;;;;;;;;5055723;28;20103;-57
2022/01/17 08:20:22;;;;;;;56.58;32.58;;;;;;;;;;5053893;28;20116;-57
2022/01/17 08:22:47;;;;;;;40.97;34.05;;;;;;;;;;5057052;28;20028;-58
2022/01/17 08:25:13;;;;;;;50.65;38.55;;;;;;;;;;5053961;28;20020;-58
2022/01/17 08:27:38;;;;;;;45.33;31.73;;;;;;;;;;5056713;28;20032;-58
2022/01/17 08:30:04;;;;;;;47.92;29.15;;;;;;;;;;5053698;28;20059;-58
2022/01/17 08:32:31;;;;;;;54.25;33.67;;;;;;;;;;5055490;28;20081;-58
2022/01/17 08:34:57;;;;;;;57.83;28.55;;;;;;;;;;5052215;28;20493;-49
2022/01/17 08:37:22;;;;;;;78.13;34.15;;;;;;;;;;5051276;28;20043;-48
2022/01/17 08:39:48;;;;;;;86.50;32.20;;;;;;;;;;5055361;28;20025;-46
2022/01/17 08:42:13;;;;;;;52.78;22.75;;;;;;;;;;5053623;28;20029;-45
2022/01/17 08:44:38;;;;;;;59.60;30.52;;;;;;;;;;5055852;28;20056;-49
2022/01/17 08:47:04;;;;;;;41.50;23.88;;;;;;;;;;5053384;28;20029;-46
2022/01/17 08:49:29;;;;;;;28.60;17.52;;;;;;;;;;5057615;28;20025;-44
2022/01/17 08:51:55;;;;;;;26.63;20.35;;;;;;;;;;5050241;28;20394;-42
2022/01/17 08:54:20;;;;;;;41.55;29.60;;;;;;;;;;5050751;28;20072;-47
2022/01/17 08:56:45;;;;;;;31.92;22.85;;;;;;;;;;5054715;28;20029;-42
2022/01/17 08:59:10;;;;;;;47.45;26.90;;;;;;;;;;5054352;28;20017;-40
2022/01/17 09:01:36;;;;;;;55.85;33.13;;;;;;;;;;5056636;28;20649;-42
2022/01/17 09:04:01;;;;;;;43.80;30.60;;;;;;;;;;5053568;28;20020;-40
2022/01/17 09:06:27;;;;;;;64.07;40.15;;;;;;;;;;5057098;28;20116;-42
2022/01/17 09:08:52;;;;;;;59.53;42.22;;;;;;;;;;5052664;28;20051;-43
2022/01/17 09:11:18;;;;;;;72.97;44.20;;;;;;;;;;5055274;28;20095;-45
2022/01/17 09:13:43;;;;;;;87.40;55.38;;;;;;;;;;5056048;28;20048;-47
2022/01/17 09:16:09;;;;;;;66.93;44.10;;;;;;;;;;5053555;28;20024;-45
2022/01/17 09:18:35;;;;;;;90.53;63.13;;;;;;;;;;5055241;28;20805;-46
2022/01/17 09:21:01;;;;;;;85.13;55.47;;;;;;;;;;5051598;28;20029;-44
2022/01/17 09:23:26;;;;;;;49.45;35.78;;;;;;;;;;5051905;28;20078;-42
2022/01/17 09:25:52;;;;;;;46.78;34.13;;;;;;;;;;5049721;28;20115;-43
2022/01/17 09:28:17;;;;;;;62.47;34.65;;;;;;;;;;5053391;28;20025;-41
2022/01/17 09:30:42;;;;;;;30.25;24.73;;;;;;;;;;5050207;28;20044;-47
2022/01/17 09:33:08;;;;;;;86.35;58.17;;;;;;;;;;5050768;28;20022;-41
2022/01/17 09:35:33;;;;;;;110.00;85.75;;;;;;;;;;5049637;28;20044;-48
2022/01/17 09:37:59;;;;;;;108.00;84.25;;;;;;;;;;5049704;28;20067;-47
2022/01/17 09:40:25;;;;;;;124.43;93.88;;;;;;;;;;5055693;28;20131;-43
2022/01/17 09:42:51;;;;;;;104.57;92.40;;;;;;;;;;5050072;28;20017;-42
2022/01/17 09:45:17;;;;;;;94.68;79.30;;;;;;;;;;5055183;28;20024;-42
2022/01/17 09:47:45;;;;;;;68.00;50.22;;;;;;;;;;5055857;28;20710;-41
2022/01/17 09:50:13;;;;;;;36.22;29.10;;;;;;;;;;5058020;28;20057;-45
2022/01/17 09:52:43;;;;;;;30.08;23.23;;;;;;;;;;5055375;28;20084;-44
2022/01/17 09:55:12;;;;;;;31.50;26.33;;;;;;;;;;5052000;28;20795;-44
2022/01/17 09:57:44;;;;;;;32.63;27.33;;;;;;;;;;5052762;28;20074;-46
2022/01/17 10:00:10;;;;;;;31.88;26.00;;;;;;;;;;5055671;28;20021;-44
2022/01/17 10:02:36;;;;;;;27.33;24.35;;;;;;;;;;5051716;28;20043;-42
2022/01/17 10:05:02;;;;;;;26.02;23.38;;;;;;;;;;5053620;28;20508;-46
2022/01/17 10:07:46;;;;;;;29.30;26.15;;;;;;;;;;5052946;28;20477;-44
2022/01/17 10:10:14;;;;;;;32.05;24.20;;;;;;;;;;5055915;28;20517;-46
2022/01/17 10:12:42;;;;;;;32.60;23.92;;;;;;;;;;5050603;28;20025;-44
2022/01/17 10:15:14;;;;;;;26.92;24.23;;;;;;;;;;5048995;28;20033;-42
2022/01/17 10:17:47;;;;;;;30.85;26.33;;;;;;;;;;5053734;28;20032;-49
2022/01/17 10:20:15;;;;;;;29.48;20.65;;;;;;;;;;5052862;28;20567;-44
2022/01/17 10:22:51;;;;;;;23.77;16.95;;;;;;;;;;5056149;28;20037;-45
2022/01/17 10:35:52;;;;;;;27.20;15.13;;;;;;;;;;5054416;28;20040;-47
2022/01/17 10:38:22;;;;;;;15.77;14.30;;;;;;;;;;5055571;28;20024;-47
2022/01/17 10:40:56;;;;;;;28.15;18.20;;;;;;;;;;5054385;28;20017;-46
2022/01/17 10:43:34;;;;;;;31.80;17.02;;;;;;;;;;5054912;28;20400;-47
2022/01/17 10:45:59;;;;;;;24.17;14.23;;;;;;;;;;5056562;28;20494;-45
2022/01/17 10:48:34;;;;;;;23.65;18.77;;;;;;;;;;5056665;28;20083;-46
2022/01/17 10:51:00;;;;;;;16.92;13.55;;;;;;;;;;5054926;28;20096;-47
2022/01/17 10:53:25;;;;;;;20.00;15.13;;;;;;;;;;5052592;28;20639;-45
2022/01/17 10:55:52;;;;;;;32.00;14.27;;;;;;;;;;5052794;28;20056;-47
2022/01/17 10:58:21;;;;;;;21.50;14.30;;;;;;;;;;5056738;28;20034;-42
2022/01/17 11:00:48;;;;;;;15.00;9.50;;;;;;;;;;5052842;28;20029;-44
2022/01/17 11:03:18;;;;;;;18.90;11.00;;;;;;;;;;5052339;28;20029;-43
2022/01/17 11:05:45;;;;;;;19.98;12.55;;;;;;;;;;5056193;28;20151;-47
2022/01/17 11:08:12;;;;;;;23.42;10.85;;;;;;;;;;5054340;28;20017;-48
2022/01/17 11:10:39;;;;;;;10.73;8.25;;;;;;;;;;5055464;28;20025;-49
2022/01/17 11:13:08;;;;;;;14.60;10.73;;;;;;;;;;5056482;28;20025;-43
2022/01/17 11:15:34;;;;;;;13.10;10.25;;;;;;;;;;5053574;28;20672;-44
2022/01/17 11:18:04;;;;;;;12.57;8.75;;;;;;;;;;5051583;28;20112;-45
2022/01/17 11:20:32;;;;;;;13.98;8.90;;;;;;;;;;5053471;28;20032;-43
2022/01/17 11:22:58;;;;;;;9.85;7.45;;;;;;;;;;5054899;28;20070;-47
2022/01/17 11:25:24;;;;;;;8.57;7.50;;;;;;;;;;5050002;28;20032;-45
2022/01/17 11:27:50;;;;;;;17.42;9.25;;;;;;;;;;5048522;28;20066;-44
2022/01/17 11:30:16;;;;;;;8.57;6.68;;;;;;;;;;5052375;28;20029;-49
2022/01/17 11:32:42;;;;;;;19.77;6.60;;;;;;;;;;5051137;28;20020;-46
2022/01/17 11:35:08;;;;;;;11.45;6.57;;;;;;;;;;5054795;28;20025;-44
2022/01/17 11:37:35;;;;;;;23.67;19.73;;;;;;;;;;5050931;28;20069;-43
2022/01/17 11:40:00;;;;;;;19.48;17.05;;;;;;;;;;5051567;28;20017;-44
2022/01/17 11:42:32;;;;;;;15.50;13.05;;;;;;;;;;5050524;28;20039;-44
2022/01/17 11:44:57;;;;;;;9.60;8.60;;;;;;;;;;5052014;28;20032;-44
2022/01/17 11:47:41;;;;;;;10.88;8.55;;;;;;;;;;5053266;28;20040;-44
2022/01/17 11:50:37;;;;;;;15.55;10.95;;;;;;;;;;5050555;28;20028;-47
2022/01/17 11:53:11;;;;;;;24.40;10.43;;;;;;;;;;5039148;28;20029;-44
2022/01/17 11:55:42;;;;;;;7.22;6.00;;;;;;;;;;5051928;28;20064;-44
2022/01/17 11:58:21;;;;;;;10.13;8.75;;;;;;;;;;5055005;28;20032;-44
2022/01/17 12:00:47;;;;;;;8.85;7.22;;;;;;;;;;5056735;28;20044;-45
2022/01/17 12:03:16;;;;;;;7.68;4.97;;;;;;;;;;5055818;28;20064;-44
2022/01/17 12:05:42;;;;;;;17.58;8.25;;;;;;;;;;5056241;28;20085;-45
2022/01/17 12:08:09;;;;;;;11.60;8.32;;;;;;;;;;5052129;28;20027;-45
2022/01/17 12:10:58;;;;;;;7.38;5.47;;;;;;;;;;5054136;28;20025;-44
2022/01/17 12:13:33;;;;;;;9.70;7.80;;;;;;;;;;5049602;28;20032;-45
2022/01/17 12:16:09;;;;;;;12.40;5.50;;;;;;;;;;5054207;28;20037;-44
2022/01/17 12:18:36;;;;;;;10.85;8.55;;;;;;;;;;5053483;28;20044;-48
2022/01/17 12:21:16;;;;;;;7.38;6.32;;;;;;;;;;5055075;28;20538;-45
2022/01/17 12:23:42;;;;;;;9.70;7.10;;;;;;;;;;5051618;28;20029;-47
2022/01/17 12:26:29;;;;;;;6.90;5.15;;;;;;;;;;5054725;28;20032;-47
2022/01/17 12:28:55;;;;;;;10.52;8.07;;;;;;;;;;5053619;28;20025;-48
2022/01/17 12:31:38;;;;;;;11.10;8.93;;;;;;;;;;5051114;28;20017;-43
2022/01/17 12:34:13;;;;;;;9.88;6.47;;;;;;;;;;5053736;28;20017;-41
2022/01/17 12:36:41;;;;;;;7.65;5.38;;;;;;;;;;5057294;28;20030;-45
2022/01/17 12:39:17;;;;;;;5.78;4.22;;;;;;;;;;5052708;28;20027;-44
2022/01/17 12:41:47;;;;;;;8.32;5.15;;;;;;;;;;5052774;28;20131;-44
2022/01/17 12:44:19;;;;;;;5.20;4.45;;;;;;;;;;5051893;28;20119;-43
2022/01/17 12:46:46;;;;;;;6.70;4.93;;;;;;;;;;5053170;28;20028;-43
2022/01/17 12:49:12;;;;;;;6.57;4.13;;;;;;;;;;5057726;28;20166;-41
2022/01/17 12:51:41;;;;;;;9.57;4.15;;;;;;;;;;5054976;28;20066;-42
2022/01/17 12:54:11;;;;;;;5.68;3.38;;;;;;;;;;5050857;28;20044;-41
2022/01/17 12:56:39;;;;;;;9.13;4.80;;;;;;;;;;5049363;28;20041;-42
2022/01/17 12:59:05;;;;;;;7.53;4.45;;;;;;;;;;5058060;28;20047;-43
2022/01/17 13:01:30;;;;;;;5.65;3.95;;;;;;;;;;5053669;28;20393;-42
2022/01/17 13:04:03;;;;;;;11.48;5.35;;;;;;;;;;5052609;28;20033;-43
2022/01/17 13:06:29;;;;;;;15.20;8.00;;;;;;;;;;5057031;28;20116;-41
2022/01/17 13:08:55;;;;;;;8.68;4.45;;;;;;;;;;5054614;28;20018;-42
2022/01/17 13:11:24;;;;;;;5.80;4.10;;;;;;;;;;5058128;28;20025;-44
2022/01/17 13:13:59;;;;;;;11.30;4.93;;;;;;;;;;5053640;28;20024;-43
2022/01/17 13:16:26;;;;;;;8.18;5.40;;;;;;;;;;5052316;28;20055;-44
2022/01/17 13:18:53;;;;;;;8.15;5.93;;;;;;;;;;5057640;28;20064;-44
2022/01/17 13:21:18;;;;;;;5.72;3.15;;;;;;;;;;5056922;28;20021;-43
2022/01/17 13:26:33;;;;;;;10.70;6.07;;;;;;;;;;5042639;28;20033;-42
2022/01/17 13:28:59;;;;;;;11.85;5.25;;;;;;;;;;5060994;28;20021;-47
2022/01/17 13:31:29;;;;;;;10.90;5.25;;;;;;;;;;5057590;28;20029;-43
2022/01/17 13:33:55;;;;;;;5.68;5.13;;;;;;;;;;5056462;28;20032;-42
2022/01/17 13:36:20;;;;;;;10.48;4.95;;;;;;;;;;5058548;28;20013;-42
2022/01/17 13:38:59;;;;;;;6.50;4.18;;;;;;;;;;5059828;28;20432;-40
2022/01/17 13:41:28;;;;;;;11.60;6.15;;;;;;;;;;5055939;28;20012;-42
2022/01/17 13:43:53;;;;;;;7.15;5.97;;;;;;;;;;5058872;28;20104;-41
2022/01/17 13:46:18;;;;;;;10.80;7.15;;;;;;;;;;5058189;28;20120;-40
2022/01/17 13:48:45;;;;;;;7.00;5.82;;;;;;;;;;5059960;28;20596;-41
2022/01/17 13:51:11;;;;;;;6.20;5.60;;;;;;;;;;5059447;28;20096;-44
2022/01/17 13:53:36;;;;;;;7.60;5.35;;;;;;;;;;5058535;28;20099;-41
2022/01/17 13:56:03;;;;;;;6.43;5.18;;;;;;;;;;5059604;28;20457;-42
2022/01/17 13:58:29;;;;;;;6.28;4.20;;;;;;;;;;5061402;28;20555;-43
2022/01/17 14:00:55;;;;;;;6.15;5.53;;;;;;;;;;5055344;28;20071;-42
2022/01/17 14:03:24;;;;;;;9.23;8.20;;;;;;;;;;5056458;28;20024;-41
2022/01/17 14:05:51;;;;;;;5.05;3.80;;;;;;;;;;5056605;28;20032;-47
2022/01/17 14:08:22;;;;;;;4.78;3.92;;;;;;;;;;5055953;28;20535;-41
2022/01/17 14:10:58;;;;;;;7.85;6.75;;;;;;;;;;5054346;28;20106;-41
2022/01/17 14:13:24;;;;;;;8.27;6.57;;;;;;;;;;5058756;28;20032;-41
2022/01/17 14:15:49;;;;;;;6.55;5.38;;;;;;;;;;5057653;28;20029;-42
2022/01/17 14:18:15;;;;;;;9.38;6.22;;;;;;;;;;5057149;28;20032;-41
2022/01/17 14:20:51;;;;;;;3.97;3.58;;;;;;;;;;5061197;28;20025;-45
2022/01/17 14:23:27;;;;;;;10.00;6.38;;;;;;;;;;5059313;28;20055;-41
2022/01/17 14:25:52;;;;;;;5.30;3.92;;;;;;;;;;5061343;28;20025;-43
2022/01/17 14:28:19;;;;;;;10.88;6.10;;;;;;;;;;5059662;28;20027;-41
2022/01/17 14:30:44;;;;;;;4.07;3.25;;;;;;;;;;5059146;28;20080;-42
2022/01/17 14:33:15;;;;;;;6.22;5.35;;;;;;;;;;5055320;28;20016;-41
2022/01/17 14:35:59;;;;;;;7.97;5.10;;;;;;;;;;5058262;28;20039;-43
2022/01/17 14:38:24;;;;;;;7.82;7.03;;;;;;;;;;5055801;28;20108;-44
2022/01/17 14:40:50;;;;;;;28.75;26.15;;;;;;;;;;5062114;28;20024;-45
2022/01/17 14:43:15;;;;;;;12.48;11.27;;;;;;;;;;5059687;28;20013;-45
2022/01/17 14:45:45;;;;;;;8.70;7.85;;;;;;;;;;5057883;28;20021;-44
2022/01/17 14:48:14;;;;;;;18.98;14.50;;;;;;;;;;5062191;28;20445;-44
2022/01/17 14:50:39;;;;;;;9.63;8.55;;;;;;;;;;5064221;28;20016;-46
2022/01/17 14:53:12;;;;;;;19.20;12.35;;;;;;;;;;5059489;28;20389;-42
2022/01/17 15:00:57;;;;;;;14.15;6.63;;;;;;;;;;5059176;28;20472;-43
2022/01/17 15:03:28;;;;;;;11.27;9.35;;;;;;;;;;5061062;28;20240;-41